sensor_id;sensor_type;location;lat;lon;timestamp;P1;durP1;ratioP1;P2;durP2;ratioP2
22916;SDS011;11624;53.250;7.456;2022-08-07T00:00:36;18.58;;;8.00;;
22916;SDS011;11624;53.250;7.456;2022-08-07T00:03:05;16.17;;;8.35;;
22916;SDS011;11624;53.250;7.456;2022-08-07T00:05:34;17.52;;;8.27;;
22916;SDS011;11624;53.250;7.456;2022-08-07T00:08:04;16.45;;;7.88;;
22916;SDS011;11624;53.250;7.456;2022-08-07T00:10:33;18.30;;;8.25;;
22916;SDS011;11624;53.250;7.456;2022-08-07T00:13:22;18.05;;;8.20;;
22916;SDS011;11624;53.250;7.456;2022-08-07T00:15:53;17.92;;;8.88;;
22916;SDS011;11624;53.250;7.456;2022-08-07T00:18:23;17.95;;;8.25;;
22916;SDS011;11624;53.250;7.456;2022-08-07T00:20:53;17.88;;;8.63;;
22916;SDS011;11624;53.250;7.456;2022-08-07T00:23:27;18.05;;;8.82;;
22916;SDS011;11624;53.250;7.456;2022-08-07T00:25:56;17.30;;;8.32;;
22916;SDS011;11624;53.250;7.456;2022-08-07T00:28:44;17.55;;;8.73;;
22916;SDS011;11624;53.250;7.456;2022-08-07T00:31:23;16.98;;;8.23;;
22916;SDS011;11624;53.250;7.456;2022-08-07T00:34:07;16.23;;;7.95;;
22916;SDS011;11624;53.250;7.456;2022-08-07T00:36:35;17.23;;;8.45;;
22916;SDS011;11624;53.250;7.456;2022-08-07T00:39:08;17.80;;;8.70;;
22916;SDS011;11624;53.250;7.456;2022-08-07T00:41:47;17.38;;;8.45;;
22916;SDS011;11624;53.250;7.456;2022-08-07T00:44:19;18.77;;;8.23;;
22916;SDS011;11624;53.250;7.456;2022-08-07T00:46:53;18.05;;;8.75;;
22916;SDS011;11624;53.250;7.456;2022-08-07T00:49:21;16.65;;;7.70;;
22916;SDS011;11624;53.250;7.456;2022-08-07T00:52:10;17.10;;;8.48;;
22916;SDS011;11624;53.250;7.456;2022-08-07T00:54:38;16.90;;;8.50;;
22916;SDS011;11624;53.250;7.456;2022-08-07T00:57:06;17.95;;;8.02;;
22916;SDS011;11624;53.250;7.456;2022-08-07T00:59:37;16.92;;;8.82;;
22916;SDS011;11624;53.250;7.456;2022-08-07T01:02:07;16.50;;;8.00;;
22916;SDS011;11624;53.250;7.456;2022-08-07T01:04:55;17.23;;;8.35;;
22916;SDS011;11624;53.250;7.456;2022-08-07T01:07:25;16.00;;;7.65;;
22916;SDS011;11624;53.250;7.456;2022-08-07T01:09:56;16.17;;;8.05;;
22916;SDS011;11624;53.250;7.456;2022-08-07T01:12:37;17.05;;;8.35;;
22916;SDS011;11624;53.250;7.456;2022-08-07T01:15:21;17.48;;;7.82;;
22916;SDS011;11624;53.250;7.456;2022-08-07T01:18:12;16.75;;;7.70;;
22916;SDS011;11624;53.250;7.456;2022-08-07T01:20:45;15.80;;;8.10;;
22916;SDS011;11624;53.250;7.456;2022-08-07T01:23:28;17.92;;;8.27;;
22916;SDS011;11624;53.250;7.456;2022-08-07T01:26:10;18.95;;;8.60;;
22916;SDS011;11624;53.250;7.456;2022-08-07T01:28:44;17.45;;;7.93;;
22916;SDS011;11624;53.250;7.456;2022-08-07T01:31:19;17.23;;;8.80;;
22916;SDS011;11624;53.250;7.456;2022-08-07T01:34:07;17.00;;;8.40;;
22916;SDS011;11624;53.250;7.456;2022-08-07T01:36:39;19.27;;;8.35;;
22916;SDS011;11624;53.250;7.456;2022-08-07T01:39:17;18.10;;;8.00;;
22916;SDS011;11624;53.250;7.456;2022-08-07T01:42:11;21.42;;;9.00;;
22916;SDS011;11624;53.250;7.456;2022-08-07T01:45:00;17.55;;;8.55;;
22916;SDS011;11624;53.250;7.456;2022-08-07T01:47:29;17.35;;;7.90;;
22916;SDS011;11624;53.250;7.456;2022-08-07T01:50:20;17.80;;;8.77;;
22916;SDS011;11624;53.250;7.456;2022-08-07T01:52:57;17.42;;;9.00;;
22916;SDS011;11624;53.250;7.456;2022-08-07T01:55:36;16.65;;;8.40;;
22916;SDS011;11624;53.250;7.456;2022-08-07T01:58:10;20.67;;;9.50;;
22916;SDS011;11624;53.250;7.456;2022-08-07T02:00:57;18.40;;;9.48;;
22916;SDS011;11624;53.250;7.456;2022-08-07T02:03:50;20.60;;;9.40;;
22916;SDS011;11624;53.250;7.456;2022-08-07T02:06:28;21.42;;;10.68;;
22916;SDS011;11624;53.250;7.456;2022-08-07T02:09:03;20.40;;;10.50;;
22916;SDS011;11624;53.250;7.456;2022-08-07T02:11:39;21.65;;;10.48;;
22916;SDS011;11624;53.250;7.456;2022-08-07T02:14:32;22.10;;;11.15;;
22916;SDS011;11624;53.250;7.456;2022-08-07T02:17:14;21.40;;;11.55;;
22916;SDS011;11624;53.250;7.456;2022-08-07T02:19:57;22.35;;;11.45;;
22916;SDS011;11624;53.250;7.456;2022-08-07T02:22:34;21.15;;;11.18;;
22916;SDS011;11624;53.250;7.456;2022-08-07T02:25:09;20.08;;;10.60;;
22916;SDS011;11624;53.250;7.456;2022-08-07T02:27:55;20.27;;;10.30;;
22916;SDS011;11624;53.250;7.456;2022-08-07T02:30:27;20.88;;;9.65;;
22916;SDS011;11624;53.250;7.456;2022-08-07T02:32:56;20.33;;;10.07;;
22916;SDS011;11624;53.250;7.456;2022-08-07T02:35:36;19.30;;;10.13;;
22916;SDS011;11624;53.250;7.456;2022-08-07T02:38:31;20.75;;;9.10;;
22916;SDS011;11624;53.250;7.456;2022-08-07T02:41:04;20.52;;;9.80;;
22916;SDS011;11624;53.250;7.456;2022-08-07T02:43:38;19.33;;;9.43;;
22916;SDS011;11624;53.250;7.456;2022-08-07T02:46:17;20.67;;;9.50;;
22916;SDS011;11624;53.250;7.456;2022-08-07T02:48:53;22.10;;;9.70;;
22916;SDS011;11624;53.250;7.456;2022-08-07T02:51:21;20.38;;;9.02;;
22916;SDS011;11624;53.250;7.456;2022-08-07T02:54:08;18.80;;;9.13;;
22916;SDS011;11624;53.250;7.456;2022-08-07T02:56:40;18.20;;;8.90;;
22916;SDS011;11624;53.250;7.456;2022-08-07T02:59:13;20.25;;;9.23;;
22916;SDS011;11624;53.250;7.456;2022-08-07T03:01:55;18.95;;;9.52;;
22916;SDS011;11624;53.250;7.456;2022-08-07T03:04:28;20.45;;;9.32;;
22916;SDS011;11624;53.250;7.456;2022-08-07T03:06:58;19.77;;;9.35;;
22916;SDS011;11624;53.250;7.456;2022-08-07T03:09:37;19.10;;;9.43;;
22916;SDS011;11624;53.250;7.456;2022-08-07T03:12:12;20.85;;;10.43;;
22916;SDS011;11624;53.250;7.456;2022-08-07T03:15:01;18.90;;;8.93;;
22916;SDS011;11624;53.250;7.456;2022-08-07T03:17:34;19.23;;;8.85;;
22916;SDS011;11624;53.250;7.456;2022-08-07T03:20:22;19.80;;;9.25;;
22916;SDS011;11624;53.250;7.456;2022-08-07T03:22:51;21.88;;;9.82;;
22916;SDS011;11624;53.250;7.456;2022-08-07T03:25:20;21.25;;;10.13;;
22916;SDS011;11624;53.250;7.456;2022-08-07T03:27:54;20.98;;;10.55;;
22916;SDS011;11624;53.250;7.456;2022-08-07T03:30:45;23.63;;;10.65;;
22916;SDS011;11624;53.250;7.456;2022-08-07T03:33:17;23.98;;;11.20;;
22916;SDS011;11624;53.250;7.456;2022-08-07T03:35:47;21.58;;;10.55;;
22916;SDS011;11624;53.250;7.456;2022-08-07T03:38:17;21.20;;;10.35;;
22916;SDS011;11624;53.250;7.456;2022-08-07T03:40:56;25.05;;;10.43;;
22916;SDS011;11624;53.250;7.456;2022-08-07T03:43:27;21.52;;;10.88;;
22916;SDS011;11624;53.250;7.456;2022-08-07T03:46:00;21.73;;;9.93;;
22916;SDS011;11624;53.250;7.456;2022-08-07T03:48:45;20.23;;;9.45;;
22916;SDS011;11624;53.250;7.456;2022-08-07T03:51:32;21.45;;;10.57;;
22916;SDS011;11624;53.250;7.456;2022-08-07T03:54:21;22.38;;;10.10;;
22916;SDS011;11624;53.250;7.456;2022-08-07T03:57:08;21.15;;;9.43;;
22916;SDS011;11624;53.250;7.456;2022-08-07T03:59:59;21.38;;;10.50;;
22916;SDS011;11624;53.250;7.456;2022-08-07T04:02:42;21.13;;;9.52;;
22916;SDS011;11624;53.250;7.456;2022-08-07T04:05:21;19.75;;;9.43;;
22916;SDS011;11624;53.250;7.456;2022-08-07T04:08:08;19.85;;;9.48;;
22916;SDS011;11624;53.250;7.456;2022-08-07T04:10:38;19.73;;;9.35;;
22916;SDS011;11624;53.250;7.456;2022-08-07T04:13:09;21.95;;;9.77;;
22916;SDS011;11624;53.250;7.456;2022-08-07T04:15:42;19.15;;;8.60;;
22916;SDS011;11624;53.250;7.456;2022-08-07T04:18:17;20.10;;;8.98;;
22916;SDS011;11624;53.250;7.456;2022-08-07T04:21:06;18.85;;;8.77;;
22916;SDS011;11624;53.250;7.456;2022-08-07T04:23:35;19.92;;;9.45;;
22916;SDS011;11624;53.250;7.456;2022-08-07T04:26:25;18.50;;;8.13;;
22916;SDS011;11624;53.250;7.456;2022-08-07T04:28:55;19.45;;;8.95;;
22916;SDS011;11624;53.250;7.456;2022-08-07T04:31:25;17.60;;;8.32;;
22916;SDS011;11624;53.250;7.456;2022-08-07T04:34:15;19.67;;;8.18;;
22916;SDS011;11624;53.250;7.456;2022-08-07T04:36:59;18.40;;;8.52;;
22916;SDS011;11624;53.250;7.456;2022-08-07T04:39:33;19.00;;;9.20;;
22916;SDS011;11624;53.250;7.456;2022-08-07T04:42:04;18.80;;;8.88;;
22916;SDS011;11624;53.250;7.456;2022-08-07T04:44:33;17.30;;;8.45;;
22916;SDS011;11624;53.250;7.456;2022-08-07T04:47:26;17.60;;;8.13;;
22916;SDS011;11624;53.250;7.456;2022-08-07T04:50:25;18.27;;;7.75;;
22916;SDS011;11624;53.250;7.456;2022-08-07T04:53:13;15.98;;;7.90;;
22916;SDS011;11624;53.250;7.456;2022-08-07T04:56:08;18.70;;;8.43;;
22916;SDS011;11624;53.250;7.456;2022-08-07T04:59:05;18.98;;;8.57;;
22916;SDS011;11624;53.250;7.456;2022-08-07T05:02:01;17.38;;;8.18;;
22916;SDS011;11624;53.250;7.456;2022-08-07T05:04:45;18.27;;;8.75;;
22916;SDS011;11624;53.250;7.456;2022-08-07T05:07:26;20.10;;;8.65;;
22916;SDS011;11624;53.250;7.456;2022-08-07T05:10:17;18.63;;;8.57;;
22916;SDS011;11624;53.250;7.456;2022-08-07T05:12:50;19.27;;;9.05;;
22916;SDS011;11624;53.250;7.456;2022-08-07T05:15:42;20.25;;;9.02;;
22916;SDS011;11624;53.250;7.456;2022-08-07T05:18:18;20.90;;;9.85;;
22916;SDS011;11624;53.250;7.456;2022-08-07T05:20:50;20.67;;;10.10;;
22916;SDS011;11624;53.250;7.456;2022-08-07T05:23:26;19.70;;;9.70;;
22916;SDS011;11624;53.250;7.456;2022-08-07T05:26:02;23.23;;;10.73;;
22916;SDS011;11624;53.250;7.456;2022-08-07T05:28:47;24.38;;;10.13;;
22916;SDS011;11624;53.250;7.456;2022-08-07T05:31:22;22.02;;;11.13;;
22916;SDS011;11624;53.250;7.456;2022-08-07T05:34:04;25.42;;;11.95;;
22916;SDS011;11624;53.250;7.456;2022-08-07T05:36:38;26.25;;;12.02;;
22916;SDS011;11624;53.250;7.456;2022-08-07T05:39:30;23.52;;;11.27;;
22916;SDS011;11624;53.250;7.456;2022-08-07T05:42:19;23.38;;;11.95;;
22916;SDS011;11624;53.250;7.456;2022-08-07T05:45:01;22.65;;;11.68;;
22916;SDS011;11624;53.250;7.456;2022-08-07T05:47:52;22.70;;;11.85;;
22916;SDS011;11624;53.250;7.456;2022-08-07T05:50:34;23.38;;;12.23;;
22916;SDS011;11624;53.250;7.456;2022-08-07T05:53:08;21.63;;;11.10;;
22916;SDS011;11624;53.250;7.456;2022-08-07T05:55:58;21.35;;;11.00;;
22916;SDS011;11624;53.250;7.456;2022-08-07T05:58:36;25.13;;;11.70;;
22916;SDS011;11624;53.250;7.456;2022-08-07T06:01:09;24.83;;;11.20;;
22916;SDS011;11624;53.250;7.456;2022-08-07T06:03:44;22.23;;;10.82;;
22916;SDS011;11624;53.250;7.456;2022-08-07T06:06:26;20.40;;;10.13;;
22916;SDS011;11624;53.250;7.456;2022-08-07T06:09:01;20.65;;;10.32;;
22916;SDS011;11624;53.250;7.456;2022-08-07T06:11:36;23.77;;;11.38;;
22916;SDS011;11624;53.250;7.456;2022-08-07T06:14:05;24.40;;;11.02;;
22916;SDS011;11624;53.250;7.456;2022-08-07T06:16:53;22.17;;;10.77;;
22916;SDS011;11624;53.250;7.456;2022-08-07T06:19:29;18.17;;;10.23;;
22916;SDS011;11624;53.250;7.456;2022-08-07T06:22:36;20.80;;;10.20;;
22916;SDS011;11624;53.250;7.456;2022-08-07T06:25:45;19.60;;;10.23;;
22916;SDS011;11624;53.250;7.456;2022-08-07T06:28:27;20.05;;;10.13;;
22916;SDS011;11624;53.250;7.456;2022-08-07T06:31:00;20.95;;;10.32;;
22916;SDS011;11624;53.250;7.456;2022-08-07T06:33:37;21.88;;;9.82;;
22916;SDS011;11624;53.250;7.456;2022-08-07T06:36:08;19.13;;;9.60;;
22916;SDS011;11624;53.250;7.456;2022-08-07T06:39:00;19.05;;;9.57;;
22916;SDS011;11624;53.250;7.456;2022-08-07T06:42:22;19.20;;;8.80;;
22916;SDS011;11624;53.250;7.456;2022-08-07T06:45:14;21.23;;;10.15;;
22916;SDS011;11624;53.250;7.456;2022-08-07T06:47:56;19.08;;;9.75;;
22916;SDS011;11624;53.250;7.456;2022-08-07T06:50:36;23.20;;;9.90;;
22916;SDS011;11624;53.250;7.456;2022-08-07T06:53:13;20.25;;;10.27;;
22916;SDS011;11624;53.250;7.456;2022-08-07T06:56:05;20.65;;;10.50;;
22916;SDS011;11624;53.250;7.456;2022-08-07T06:58:45;22.95;;;9.90;;
22916;SDS011;11624;53.250;7.456;2022-08-07T07:01:44;19.08;;;9.55;;
22916;SDS011;11624;53.250;7.456;2022-08-07T07:04:33;20.08;;;10.38;;
22916;SDS011;11624;53.250;7.456;2022-08-07T07:07:09;20.20;;;9.98;;
22916;SDS011;11624;53.250;7.456;2022-08-07T07:10:02;22.40;;;10.55;;
22916;SDS011;11624;53.250;7.456;2022-08-07T07:12:52;19.67;;;10.38;;
22916;SDS011;11624;53.250;7.456;2022-08-07T07:15:35;19.73;;;9.40;;
22916;SDS011;11624;53.250;7.456;2022-08-07T07:18:20;16.88;;;8.32;;
22916;SDS011;11624;53.250;7.456;2022-08-07T07:21:14;20.83;;;8.68;;
22916;SDS011;11624;53.250;7.456;2022-08-07T07:23:52;16.45;;;8.10;;
22916;SDS011;11624;53.250;7.456;2022-08-07T07:26:37;17.73;;;8.75;;
22916;SDS011;11624;53.250;7.456;2022-08-07T07:29:19;14.57;;;6.57;;
22916;SDS011;11624;53.250;7.456;2022-08-07T07:32:11;15.55;;;7.10;;
22916;SDS011;11624;53.250;7.456;2022-08-07T07:34:44;13.60;;;6.45;;
22916;SDS011;11624;53.250;7.456;2022-08-07T07:37:15;14.35;;;6.32;;
22916;SDS011;11624;53.250;7.456;2022-08-07T07:40:05;13.10;;;5.70;;
22916;SDS011;11624;53.250;7.456;2022-08-07T07:42:41;14.05;;;6.45;;
22916;SDS011;11624;53.250;7.456;2022-08-07T07:45:22;14.23;;;5.88;;
22916;SDS011;11624;53.250;7.456;2022-08-07T07:48:16;14.07;;;5.50;;
22916;SDS011;11624;53.250;7.456;2022-08-07T07:51:02;11.02;;;4.63;;
22916;SDS011;11624;53.250;7.456;2022-08-07T07:53:35;11.80;;;4.40;;
22916;SDS011;11624;53.250;7.456;2022-08-07T07:56:18;13.30;;;5.25;;
22916;SDS011;11624;53.250;7.456;2022-08-07T07:58:57;10.52;;;4.50;;
22916;SDS011;11624;53.250;7.456;2022-08-07T08:01:33;11.82;;;4.10;;
22916;SDS011;11624;53.250;7.456;2022-08-07T08:04:26;11.63;;;4.47;;
22916;SDS011;11624;53.250;7.456;2022-08-07T08:07:02;11.27;;;4.90;;
22916;SDS011;11624;53.250;7.456;2022-08-07T08:09:33;14.63;;;4.47;;
22916;SDS011;11624;53.250;7.456;2022-08-07T08:12:23;13.45;;;4.28;;
22916;SDS011;11624;53.250;7.456;2022-08-07T08:15:15;10.15;;;3.80;;
22916;SDS011;11624;53.250;7.456;2022-08-07T08:17:48;11.02;;;4.18;;
22916;SDS011;11624;53.250;7.456;2022-08-07T08:20:24;12.25;;;4.15;;
22916;SDS011;11624;53.250;7.456;2022-08-07T08:22:59;12.68;;;4.57;;
22916;SDS011;11624;53.250;7.456;2022-08-07T08:25:53;10.05;;;4.47;;
22916;SDS011;11624;53.250;7.456;2022-08-07T08:28:50;10.73;;;4.10;;
22916;SDS011;11624;53.250;7.456;2022-08-07T08:31:21;10.98;;;3.88;;
22916;SDS011;11624;53.250;7.456;2022-08-07T08:34:11;9.93;;;3.75;;
22916;SDS011;11624;53.250;7.456;2022-08-07T08:36:54;8.48;;;3.50;;
22916;SDS011;11624;53.250;7.456;2022-08-07T08:39:26;10.05;;;3.83;;
22916;SDS011;11624;53.250;7.456;2022-08-07T08:42:18;12.55;;;4.07;;
22916;SDS011;11624;53.250;7.456;2022-08-07T08:44:57;9.48;;;3.55;;
22916;SDS011;11624;53.250;7.456;2022-08-07T08:47:31;11.75;;;3.42;;
22916;SDS011;11624;53.250;7.456;2022-08-07T08:50:19;7.38;;;3.20;;
22916;SDS011;11624;53.250;7.456;2022-08-07T08:53:08;9.05;;;3.60;;
22916;SDS011;11624;53.250;7.456;2022-08-07T08:55:47;9.95;;;3.63;;
22916;SDS011;11624;53.250;7.456;2022-08-07T08:58:29;10.70;;;3.67;;
22916;SDS011;11624;53.250;7.456;2022-08-07T09:01:09;8.80;;;3.40;;
22916;SDS011;11624;53.250;7.456;2022-08-07T09:03:49;6.35;;;2.65;;
22916;SDS011;11624;53.250;7.456;2022-08-07T09:06:31;12.65;;;3.40;;
22916;SDS011;11624;53.250;7.456;2022-08-07T09:09:17;10.88;;;3.45;;
22916;SDS011;11624;53.250;7.456;2022-08-07T09:12:03;10.60;;;3.30;;
22916;SDS011;11624;53.250;7.456;2022-08-07T09:18:22;9.07;;;3.30;;
22916;SDS011;11624;53.250;7.456;2022-08-07T09:21:04;8.60;;;3.38;;
22916;SDS011;11624;53.250;7.456;2022-08-07T09:24:04;10.98;;;3.17;;
22916;SDS011;11624;53.250;7.456;2022-08-07T09:27:15;8.45;;;3.00;;
22916;SDS011;11624;53.250;7.456;2022-08-07T09:29:55;8.93;;;3.20;;
22916;SDS011;11624;53.250;7.456;2022-08-07T09:32:42;8.18;;;3.05;;
22916;SDS011;11624;53.250;7.456;2022-08-07T09:35:27;7.13;;;3.03;;
22916;SDS011;11624;53.250;7.456;2022-08-07T09:38:23;6.38;;;3.05;;
22916;SDS011;11624;53.250;7.456;2022-08-07T09:41:05;7.30;;;3.03;;
22916;SDS011;11624;53.250;7.456;2022-08-07T09:43:50;10.02;;;3.60;;
22916;SDS011;11624;53.250;7.456;2022-08-07T09:46:53;9.10;;;3.55;;
22916;SDS011;11624;53.250;7.456;2022-08-07T09:49:54;11.85;;;3.50;;
22916;SDS011;11624;53.250;7.456;2022-08-07T09:52:45;7.75;;;3.20;;
22916;SDS011;11624;53.250;7.456;2022-08-07T09:55:19;9.25;;;3.42;;
22916;SDS011;11624;53.250;7.456;2022-08-07T10:01:21;7.78;;;3.13;;
22916;SDS011;11624;53.250;7.456;2022-08-07T10:07:42;11.93;;;3.20;;
22916;SDS011;11624;53.250;7.456;2022-08-07T10:10:33;7.93;;;3.10;;
22916;SDS011;11624;53.250;7.456;2022-08-07T10:13:35;6.95;;;2.70;;
22916;SDS011;11624;53.250;7.456;2022-08-07T10:19:45;9.82;;;2.97;;
22916;SDS011;11624;53.250;7.456;2022-08-07T10:25:27;7.75;;;2.97;;
22916;SDS011;11624;53.250;7.456;2022-08-07T10:31:29;6.70;;;3.15;;
22916;SDS011;11624;53.250;7.456;2022-08-07T10:34:16;8.88;;;2.83;;
22916;SDS011;11624;53.250;7.456;2022-08-07T10:37:06;8.52;;;2.65;;
22916;SDS011;11624;53.250;7.456;2022-08-07T10:39:57;7.60;;;3.10;;
22916;SDS011;11624;53.250;7.456;2022-08-07T10:42:35;7.07;;;2.88;;
22916;SDS011;11624;53.250;7.456;2022-08-07T10:45:10;6.35;;;2.63;;
22916;SDS011;11624;53.250;7.456;2022-08-07T10:48:10;9.30;;;2.80;;
22916;SDS011;11624;53.250;7.456;2022-08-07T10:50:46;8.27;;;2.65;;
22916;SDS011;11624;53.250;7.456;2022-08-07T10:53:22;7.20;;;2.75;;
22916;SDS011;11624;53.250;7.456;2022-08-07T10:56:12;7.50;;;2.88;;
22916;SDS011;11624;53.250;7.456;2022-08-07T10:59:00;9.13;;;3.30;;
22916;SDS011;11624;53.250;7.456;2022-08-07T11:01:40;9.63;;;3.08;;
22916;SDS011;11624;53.250;7.456;2022-08-07T11:04:41;6.80;;;2.90;;
22916;SDS011;11624;53.250;7.456;2022-08-07T11:07:24;7.22;;;2.58;;
22916;SDS011;11624;53.250;7.456;2022-08-07T11:10:20;6.78;;;2.65;;
22916;SDS011;11624;53.250;7.456;2022-08-07T11:12:57;10.15;;;3.33;;
22916;SDS011;11624;53.250;7.456;2022-08-07T11:15:30;5.70;;;2.60;;
22916;SDS011;11624;53.250;7.456;2022-08-07T11:18:02;5.80;;;2.60;;
22916;SDS011;11624;53.250;7.456;2022-08-07T11:20:41;7.97;;;2.50;;
22916;SDS011;11624;53.250;7.456;2022-08-07T11:23:17;6.97;;;2.60;;
22916;SDS011;11624;53.250;7.456;2022-08-07T11:26:04;7.93;;;2.97;;
22916;SDS011;11624;53.250;7.456;2022-08-07T11:28:41;5.82;;;2.50;;
22916;SDS011;11624;53.250;7.456;2022-08-07T11:31:23;6.35;;;2.80;;
22916;SDS011;11624;53.250;7.456;2022-08-07T11:34:03;5.10;;;2.60;;
22916;SDS011;11624;53.250;7.456;2022-08-07T11:36:45;6.15;;;2.40;;
22916;SDS011;11624;53.250;7.456;2022-08-07T11:39:31;6.78;;;2.65;;
22916;SDS011;11624;53.250;7.456;2022-08-07T11:42:30;6.22;;;2.55;;
22916;SDS011;11624;53.250;7.456;2022-08-07T11:45:15;6.60;;;2.90;;
22916;SDS011;11624;53.250;7.456;2022-08-07T11:51:06;6.82;;;2.70;;
22916;SDS011;11624;53.250;7.456;2022-08-07T11:54:11;8.80;;;2.60;;
22916;SDS011;11624;53.250;7.456;2022-08-07T11:57:00;5.00;;;2.30;;
22916;SDS011;11624;53.250;7.456;2022-08-07T12:02:50;5.68;;;2.50;;
22916;SDS011;11624;53.250;7.456;2022-08-07T12:06:06;7.03;;;2.60;;
22916;SDS011;11624;53.250;7.456;2022-08-07T12:09:04;8.52;;;2.60;;
22916;SDS011;11624;53.250;7.456;2022-08-07T12:11:45;6.55;;;2.60;;
22916;SDS011;11624;53.250;7.456;2022-08-07T12:14:41;5.00;;;2.58;;
22916;SDS011;11624;53.250;7.456;2022-08-07T12:17:23;7.53;;;2.70;;
22916;SDS011;11624;53.250;7.456;2022-08-07T12:20:07;5.90;;;2.72;;
22916;SDS011;11624;53.250;7.456;2022-08-07T13:26:41;6.28;;;2.33;;
22916;SDS011;11624;53.250;7.456;2022-08-07T13:30:26;7.90;;;2.53;;
22916;SDS011;11624;53.250;7.456;2022-08-07T13:33:15;4.68;;;2.50;;
22916;SDS011;11624;53.250;7.456;2022-08-07T13:36:15;5.60;;;2.60;;
22916;SDS011;11624;53.250;7.456;2022-08-07T13:38:57;6.22;;;2.78;;
22916;SDS011;11624;53.250;7.456;2022-08-07T13:41:51;7.75;;;2.35;;
22916;SDS011;11624;53.250;7.456;2022-08-07T13:44:21;4.82;;;2.60;;
22916;SDS011;11624;53.250;7.456;2022-08-07T13:47:07;6.53;;;2.80;;
22916;SDS011;11624;53.250;7.456;2022-08-07T13:49:51;4.22;;;2.30;;
22916;SDS011;11624;53.250;7.456;2022-08-07T13:52:41;4.28;;;2.20;;
22916;SDS011;11624;53.250;7.456;2022-08-07T13:55:15;6.15;;;2.42;;
22916;SDS011;11624;53.250;7.456;2022-08-07T13:57:57;5.40;;;2.33;;
22916;SDS011;11624;53.250;7.456;2022-08-07T14:00:57;9.18;;;2.55;;
22916;SDS011;11624;53.250;7.456;2022-08-07T14:03:35;5.60;;;2.42;;
22916;SDS011;11624;53.250;7.456;2022-08-07T14:06:29;7.15;;;2.65;;
22916;SDS011;11624;53.250;7.456;2022-08-07T14:08:59;5.85;;;2.30;;
22916;SDS011;11624;53.250;7.456;2022-08-07T14:11:33;3.83;;;2.33;;
22916;SDS011;11624;53.250;7.456;2022-08-07T14:14:27;7.47;;;2.45;;
22916;SDS011;11624;53.250;7.456;2022-08-07T14:16:59;4.57;;;2.13;;
22916;SDS011;11624;53.250;7.456;2022-08-07T14:19:51;5.82;;;2.40;;
22916;SDS011;11624;53.250;7.456;2022-08-07T14:22:43;4.28;;;2.05;;
22916;SDS011;11624;53.250;7.456;2022-08-07T14:25:23;7.38;;;2.50;;
22916;SDS011;11624;53.250;7.456;2022-08-07T14:28:07;5.25;;;2.45;;
22916;SDS011;11624;53.250;7.456;2022-08-07T14:30:57;5.10;;;2.47;;
22916;SDS011;11624;53.250;7.456;2022-08-07T14:33:30;4.78;;;2.13;;
22916;SDS011;11624;53.250;7.456;2022-08-07T14:36:10;4.53;;;2.38;;
22916;SDS011;11624;53.250;7.456;2022-08-07T14:38:42;5.70;;;2.13;;
22916;SDS011;11624;53.250;7.456;2022-08-07T14:41:17;6.70;;;2.60;;
22916;SDS011;11624;53.250;7.456;2022-08-07T14:44:13;5.97;;;2.22;;
22916;SDS011;11624;53.250;7.456;2022-08-07T14:46:45;4.38;;;2.42;;
22916;SDS011;11624;53.250;7.456;2022-08-07T14:49:17;5.70;;;2.20;;
22916;SDS011;11624;53.250;7.456;2022-08-07T14:52:11;5.25;;;2.20;;
22916;SDS011;11624;53.250;7.456;2022-08-07T14:54:42;9.02;;;2.78;;
22916;SDS011;11624;53.250;7.456;2022-08-07T14:57:19;5.53;;;2.60;;
22916;SDS011;11624;53.250;7.456;2022-08-07T15:00:13;7.35;;;2.65;;
22916;SDS011;11624;53.250;7.456;2022-08-07T15:02:55;6.57;;;2.85;;
22916;SDS011;11624;53.250;7.456;2022-08-07T15:05:25;7.38;;;2.95;;
22916;SDS011;11624;53.250;7.456;2022-08-07T15:07:56;6.55;;;2.40;;
22916;SDS011;11624;53.250;7.456;2022-08-07T15:10:25;5.00;;;2.60;;
22916;SDS011;11624;53.250;7.456;2022-08-07T15:13:15;5.78;;;2.65;;
22916;SDS011;11624;53.250;7.456;2022-08-07T15:15:55;10.02;;;3.40;;
22916;SDS011;11624;53.250;7.456;2022-08-07T15:18:29;7.95;;;2.97;;
22916;SDS011;11624;53.250;7.456;2022-08-07T15:21:02;6.93;;;2.80;;
22916;SDS011;11624;53.250;7.456;2022-08-07T15:23:35;8.27;;;2.72;;
22916;SDS011;11624;53.250;7.456;2022-08-07T15:26:30;7.00;;;2.58;;
22916;SDS011;11624;53.250;7.456;2022-08-07T15:29:05;6.53;;;2.50;;
22916;SDS011;11624;53.250;7.456;2022-08-07T15:31:59;5.38;;;2.40;;
22916;SDS011;11624;53.250;7.456;2022-08-07T15:34:32;12.13;;;3.03;;
22916;SDS011;11624;53.250;7.456;2022-08-07T15:37:02;10.55;;;2.97;;
22916;SDS011;11624;53.250;7.456;2022-08-07T15:39:36;5.95;;;2.53;;
22916;SDS011;11624;53.250;7.456;2022-08-07T15:42:35;7.93;;;2.47;;
22916;SDS011;11624;53.250;7.456;2022-08-07T15:45:28;7.68;;;2.75;;
22916;SDS011;11624;53.250;7.456;2022-08-07T15:48:23;6.88;;;2.80;;
22916;SDS011;11624;53.250;7.456;2022-08-07T15:50:57;7.43;;;2.88;;
22916;SDS011;11624;53.250;7.456;2022-08-07T15:53:53;7.20;;;2.65;;
22916;SDS011;11624;53.250;7.456;2022-08-07T15:56:28;9.10;;;3.13;;
22916;SDS011;11624;53.250;7.456;2022-08-07T15:59:02;7.13;;;2.85;;
22916;SDS011;11624;53.250;7.456;2022-08-07T16:01:43;9.18;;;3.15;;
22916;SDS011;11624;53.250;7.456;2022-08-07T16:04:30;9.00;;;2.85;;
22916;SDS011;11624;53.250;7.456;2022-08-07T16:07:03;7.03;;;3.08;;
22916;SDS011;11624;53.250;7.456;2022-08-07T16:09:56;8.50;;;3.03;;
22916;SDS011;11624;53.250;7.456;2022-08-07T16:12:41;8.60;;;3.00;;
22916;SDS011;11624;53.250;7.456;2022-08-07T16:15:33;7.82;;;2.90;;
22916;SDS011;11624;53.250;7.456;2022-08-07T16:18:28;8.48;;;3.13;;
22916;SDS011;11624;53.250;7.456;2022-08-07T16:21:19;6.55;;;2.78;;
22916;SDS011;11624;53.250;7.456;2022-08-07T16:24:31;4.80;;;2.42;;
22916;SDS011;11624;53.250;7.456;2022-08-07T16:27:06;6.30;;;2.72;;
22916;SDS011;11624;53.250;7.456;2022-08-07T16:30:04;9.85;;;2.63;;
22916;SDS011;11624;53.250;7.456;2022-08-07T16:32:57;7.70;;;2.92;;
22916;SDS011;11624;53.250;7.456;2022-08-07T16:36:01;6.68;;;3.00;;
22916;SDS011;11624;53.250;7.456;2022-08-07T16:38:51;7.75;;;2.90;;
22916;SDS011;11624;53.250;7.456;2022-08-07T16:41:34;7.93;;;2.90;;
22916;SDS011;11624;53.250;7.456;2022-08-07T16:44:25;7.95;;;2.90;;
22916;SDS011;11624;53.250;7.456;2022-08-07T16:47:31;6.53;;;2.67;;
22916;SDS011;11624;53.250;7.456;2022-08-07T16:50:36;5.85;;;2.67;;
22916;SDS011;11624;53.250;7.456;2022-08-07T16:53:38;7.40;;;2.83;;
22916;SDS011;11624;53.250;7.456;2022-08-07T16:56:42;9.20;;;2.53;;
22916;SDS011;11624;53.250;7.456;2022-08-07T16:59:23;10.13;;;2.80;;
22916;SDS011;11624;53.250;7.456;2022-08-07T17:02:19;8.02;;;2.53;;
22916;SDS011;11624;53.250;7.456;2022-08-07T17:05:35;8.13;;;2.50;;
22916;SDS011;11624;53.250;7.456;2022-08-07T17:08:47;8.88;;;2.50;;
22916;SDS011;11624;53.250;7.456;2022-08-07T17:11:37;6.82;;;2.38;;
22916;SDS011;11624;53.250;7.456;2022-08-07T17:14:36;8.73;;;2.53;;
22916;SDS011;11624;53.250;7.456;2022-08-07T17:17:18;7.95;;;2.33;;
22916;SDS011;11624;53.250;7.456;2022-08-07T17:20:12;6.18;;;2.28;;
22916;SDS011;11624;53.250;7.456;2022-08-07T17:22:47;7.47;;;2.40;;
22916;SDS011;11624;53.250;7.456;2022-08-07T17:25:26;11.68;;;2.92;;
22916;SDS011;11624;53.250;7.456;2022-08-07T17:28:22;7.80;;;2.67;;
22916;SDS011;11624;53.250;7.456;2022-08-07T17:31:00;9.02;;;2.80;;
22916;SDS011;11624;53.250;7.456;2022-08-07T17:33:46;9.48;;;2.95;;
22916;SDS011;11624;53.250;7.456;2022-08-07T17:36:36;6.78;;;2.47;;
22916;SDS011;11624;53.250;7.456;2022-08-07T17:39:29;6.05;;;2.30;;
22916;SDS011;11624;53.250;7.456;2022-08-07T17:42:39;10.13;;;2.60;;